Time;durP1;ratioP1;P1;durP2;ratioP2;P2;SDS_P1;SDS_P2;PMS_P1;PMS_P2;Temp;Humidity;BMP_temperature;BMP_pressure;BME280_temperature;BME280_humidity;BME280_pressure;Samples;Min_cycle;Max_cycle;Signal;HPM_P1;HPM_P2
2023/07/21 00:01:50;;;;;;;0.95;0.70;;;;;;;22.15;51.57;101216.22;5060820;28;20041;-61
2023/07/21 00:04:17;;;;;;;0.82;0.82;;;;;;;22.15;51.66;101216.22;5058424;28;20655;-60
2023/07/21 00:06:43;;;;;;;0.82;0.82;;;;;;;22.15;51.52;101216.22;5066035;28;20024;-61
2023/07/21 00:09:12;;;;;;;1.13;0.90;;;;;;;22.14;50.92;101214.56;5061897;28;20087;-60
2023/07/21 00:11:38;;;;;;;0.70;0.70;;;;;;;22.14;51.56;101217.25;5063644;28;20032;-61
2023/07/21 00:14:06;;;;;;;0.77;0.77;;;;;;;22.14;51.22;101202.84;5061573;28;20506;-60
2023/07/21 00:16:34;;;;;;;0.70;0.70;;;;;;;22.13;51.02;101206.56;5061860;28;20493;-60
2023/07/21 00:19:02;;;;;;;0.80;0.80;;;;;;;22.14;51.00;101208.25;5060699;28;20028;-61
2023/07/21 00:21:29;;;;;;;0.77;0.77;;;;;;;22.13;51.13;101203.84;5060993;28;20135;-60
2023/07/21 00:23:55;;;;;;;0.90;0.90;;;;;;;22.12;51.39;101203.00;5060797;28;20052;-60
2023/07/21 00:26:20;;;;;;;1.17;0.85;;;;;;;22.12;51.06;101204.84;5060465;28;20049;-60
2023/07/21 00:28:45;;;;;;;0.80;0.80;;;;;;;22.12;51.22;101208.41;5060937;28;20060;-60
2023/07/21 00:31:11;;;;;;;0.82;0.80;;;;;;;22.11;51.04;101201.31;5061396;28;20119;-60
2023/07/21 00:33:37;;;;;;;0.90;0.90;;;;;;;22.12;50.68;101202.16;5060322;28;20044;-60
2023/07/21 00:36:04;;;;;;;0.63;0.63;;;;;;;22.10;50.87;101201.47;5061059;28;20044;-60
2023/07/21 00:38:30;;;;;;;0.80;0.80;;;;;;;22.09;50.89;101197.91;5061412;28;20036;-61
2023/07/21 00:40:56;;;;;;;0.70;0.70;;;;;;;22.09;50.98;101197.91;5065027;28;20039;-61
2023/07/21 00:43:21;;;;;;;0.77;0.77;;;;;;;22.10;51.07;101198.75;5060827;28;20032;-60
2023/07/21 00:45:48;;;;;;;0.70;0.70;;;;;;;22.08;50.46;101196.19;5060909;28;20032;-61
2023/07/21 00:48:16;;;;;;;0.80;0.73;;;;;;;22.08;50.63;101190.78;5060159;28;20051;-60
2023/07/21 00:50:45;;;;;;;0.80;0.80;;;;;;;22.06;51.00;101193.66;5060414;28;20039;-61
2023/07/21 00:53:12;;;;;;;0.88;0.80;;;;;;;22.07;50.48;101183.69;5060816;28;20025;-60
2023/07/21 00:55:38;;;;;;;0.80;0.80;;;;;;;22.08;50.39;101193.50;5061130;28;20123;-61
2023/07/21 00:58:07;;;;;;;1.05;0.90;;;;;;;22.06;50.34;101187.38;5060348;28;20037;-61
2023/07/21 01:00:33;;;;;;;0.70;0.70;;;;;;;22.07;50.89;101183.69;5057596;28;20450;-60
2023/07/21 01:03:01;;;;;;;1.75;1.08;;;;;;;22.05;50.55;101175.69;5061445;28;20115;-61
2023/07/21 01:05:28;;;;;;;1.67;0.95;;;;;;;22.05;50.48;101174.84;5060242;28;20033;-60
2023/07/21 01:07:54;;;;;;;0.70;0.70;;;;;;;22.05;50.49;101178.41;5061511;28;20028;-60
2023/07/21 01:10:20;;;;;;;2.25;0.80;;;;;;;22.04;50.04;101179.41;5046311;28;20521;-60
2023/07/21 01:12:48;;;;;;;1.73;0.95;;;;;;;22.04;50.43;101178.56;5062037;28;20348;-60
2023/07/21 01:15:13;;;;;;;1.67;0.95;;;;;;;22.04;50.32;101170.44;5061601;28;20386;-60
2023/07/21 01:17:40;;;;;;;1.98;1.05;;;;;;;22.03;50.14;101168.75;5061720;28;20032;-60
2023/07/21 01:20:09;;;;;;;2.45;0.77;;;;;;;22.02;50.30;101170.59;5042869;28;20032;-60
2023/07/21 01:22:50;;;;;;;1.27;0.82;;;;;;;22.03;50.59;101177.72;5061019;28;20102;-60
2023/07/21 01:25:17;;;;;;;1.92;0.77;;;;;;;22.02;50.49;101167.03;5057951;28;20115;-60
2023/07/21 01:27:47;;;;;;;2.03;1.10;;;;;;;22.01;50.23;101165.38;5060358;28;20100;-60
2023/07/21 01:30:14;;;;;;;1.17;1.08;;;;;;;22.01;50.26;101162.66;5060655;28;20039;-60
2023/07/21 01:32:41;;;;;;;1.52;1.02;;;;;;;22.00;50.01;101155.50;5061258;28;20036;-60
2023/07/21 01:35:09;;;;;;;3.72;1.00;;;;;;;22.00;50.14;101153.66;5060186;28;20041;-60
2023/07/21 01:37:39;;;;;;;1.08;0.95;;;;;;;21.99;50.53;101159.22;5060867;28;20040;-61
2023/07/21 01:40:11;;;;;;;1.33;1.20;;;;;;;21.99;50.04;101148.38;5043405;28;20511;-60
2023/07/21 01:42:37;;;;;;;2.72;0.93;;;;;;;21.99;50.06;101153.81;5059980;28;20033;-60
2023/07/21 01:45:03;;;;;;;1.75;0.88;;;;;;;21.98;50.09;101152.13;5060015;28;20044;-61
2023/07/21 01:47:31;;;;;;;2.90;0.93;;;;;;;21.97;50.39;101151.28;5061164;28;20414;-61
2023/07/21 01:49:57;;;;;;;0.80;0.80;;;;;;;21.97;50.34;101153.13;5060288;28;20033;-60
2023/07/21 01:52:23;;;;;;;1.15;0.80;;;;;;;21.96;49.65;101140.59;5060341;28;20094;-61
2023/07/21 01:55:14;;;;;;;0.73;0.73;;;;;;;21.99;50.35;101143.84;5059076;28;20033;-60
2023/07/21 01:57:45;;;;;;;1.17;0.90;;;;;;;21.96;49.78;101132.47;5048304;28;20045;-60
2023/07/21 02:00:13;;;;;;;0.95;0.95;;;;;;;21.97;49.89;101137.72;5061679;28;20031;-60
2023/07/21 02:02:40;;;;;;;0.75;0.75;;;;;;;21.96;50.24;101146.03;5060767;28;20121;-60
2023/07/21 02:05:16;;;;;;;2.28;1.35;;;;;;;21.95;50.16;101136.19;5061259;28;20024;-60
2023/07/21 02:07:44;;;;;;;0.80;0.80;;;;;;;21.94;49.60;101134.50;5063351;28;20036;-60
2023/07/21 02:10:11;;;;;;;2.15;0.70;;;;;;;21.94;49.76;101139.91;5061266;28;20029;-60
2023/07/21 02:12:37;;;;;;;1.10;1.00;;;;;;;21.94;49.73;101137.19;5059911;28;20033;-60
2023/07/21 02:15:05;;;;;;;1.35;0.85;;;;;;;21.92;49.81;101139.22;5060252;28;20033;-60
2023/07/21 02:17:31;;;;;;;2.35;0.80;;;;;;;21.92;49.56;101131.94;5058470;28;20064;-60
2023/07/21 02:19:56;;;;;;;1.30;0.60;;;;;;;21.92;49.58;101134.66;5060049;28;20095;-61
2023/07/21 02:22:22;;;;;;;3.13;0.90;;;;;;;21.92;49.63;101131.94;5060125;28;20553;-60
2023/07/21 02:24:47;;;;;;;1.65;1.00;;;;;;;21.91;49.87;101127.53;5060780;28;20043;-60
2023/07/21 02:27:12;;;;;;;0.70;0.70;;;;;;;21.91;49.75;101129.38;5059763;28;20040;-60
2023/07/21 02:29:38;;;;;;;0.80;0.80;;;;;;;21.91;49.39;101123.97;5060238;28;20036;-60
2023/07/21 02:32:03;;;;;;;0.65;0.65;;;;;;;21.90;49.82;101125.00;5060986;28;20119;-61
2023/07/21 02:34:29;;;;;;;1.17;0.80;;;;;;;21.90;49.53;101127.72;5063560;28;20044;-61
2023/07/21 02:36:55;;;;;;;3.70;0.80;;;;;;;21.89;49.53;101123.28;5060430;28;20558;-61
2023/07/21 02:39:20;;;;;;;1.95;0.93;;;;;;;21.89;49.16;101118.72;5060501;28;20120;-60
2023/07/21 02:41:46;;;;;;;0.82;0.82;;;;;;;21.88;49.18;101118.91;5059914;28;20043;-60
2023/07/21 02:44:11;;;;;;;0.90;0.90;;;;;;;21.88;49.42;101117.03;5060063;28;20163;-61
2023/07/21 02:46:36;;;;;;;1.17;0.85;;;;;;;21.86;49.65;101114.47;5060464;28;20074;-60
2023/07/21 02:49:03;;;;;;;0.80;0.80;;;;;;;21.88;49.77;101113.47;5059810;28;20382;-60
2023/07/21 02:51:28;;;;;;;1.08;0.90;;;;;;;21.86;49.66;101113.63;5059031;28;20033;-61
2023/07/21 02:53:53;;;;;;;3.70;0.85;;;;;;;21.86;49.35;101106.34;5059879;28;20024;-60
2023/07/21 02:56:19;;;;;;;1.05;0.90;;;;;;;21.85;49.24;101110.06;5061385;28;20116;-60
2023/07/21 02:58:44;;;;;;;0.70;0.70;;;;;;;21.85;49.53;101115.47;5063577;28;20036;-60
2023/07/21 03:01:12;;;;;;;0.95;0.85;;;;;;;21.85;49.60;101115.47;5063541;28;20025;-60
2023/07/21 03:03:39;;;;;;;1.08;0.98;;;;;;;21.85;49.11;101111.91;5063983;28;20364;-60
2023/07/21 03:06:05;;;;;;;0.82;0.70;;;;;;;21.85;49.50;101118.19;5061933;28;20368;-61
2023/07/21 03:08:31;;;;;;;0.75;0.75;;;;;;;21.83;49.23;101117.50;5066346;28;20374;-60
2023/07/21 03:10:57;;;;;;;0.80;0.80;;;;;;;21.84;49.28;101108.38;5048379;28;20035;-60
2023/07/21 03:13:24;;;;;;;0.98;0.70;;;;;;;21.83;49.23;101112.09;5062796;28;20163;-60
2023/07/21 03:15:50;;;;;;;1.13;1.00;;;;;;;21.83;49.07;101119.38;5063207;28;20032;-61
2023/07/21 03:18:15;;;;;;;1.15;0.80;;;;;;;21.83;48.98;101120.22;5063743;28;20481;-60
2023/07/21 03:20:40;;;;;;;0.70;0.70;;;;;;;21.83;48.93;101116.66;5062926;28;20372;-61
2023/07/21 03:23:07;;;;;;;2.53;0.80;;;;;;;21.82;49.06;101114.97;5063067;28;20061;-60
2023/07/21 03:25:37;;;;;;;0.93;0.80;;;;;;;21.81;49.21;101116.81;5064181;28;20048;-60
2023/07/21 03:28:03;;;;;;;1.55;0.70;;;;;;;21.79;49.17;101118.84;5063172;28;20036;-60
2023/07/21 03:30:28;;;;;;;0.63;0.63;;;;;;;21.79;49.05;101113.44;5062499;28;20033;-60
2023/07/21 03:32:54;;;;;;;0.60;0.60;;;;;;;21.80;48.78;101112.44;5063718;28;20028;-61
2023/07/21 03:35:19;;;;;;;0.70;0.70;;;;;;;21.80;48.78;101112.44;5063738;28;20036;-61
2023/07/21 03:37:45;;;;;;;1.98;0.90;;;;;;;21.78;49.09;101113.59;5062730;28;20437;-60
2023/07/21 03:40:11;;;;;;;0.65;0.65;;;;;;;21.79;48.66;101115.31;5063032;28;20031;-60
2023/07/21 03:42:36;;;;;;;1.33;0.93;;;;;;;21.78;48.75;101111.75;5062626;28;20071;-60
2023/07/21 03:45:06;;;;;;;0.70;0.70;;;;;;;21.78;48.72;101113.59;5063047;28;20387;-61
2023/07/21 03:47:33;;;;;;;0.70;0.70;;;;;;;21.77;48.83;101107.31;5063508;28;20021;-60
2023/07/21 03:49:58;;;;;;;0.80;0.80;;;;;;;21.76;48.55;101115.63;5062687;28;20036;-60
2023/07/21 03:52:24;;;;;;;1.00;0.80;;;;;;;21.76;48.82;101111.06;5062837;28;20433;-60
2023/07/21 03:54:49;;;;;;;0.85;0.75;;;;;;;21.75;48.83;101113.94;5062936;28;20075;-60
2023/07/21 03:57:15;;;;;;;1.02;0.98;;;;;;;21.75;48.94;101113.94;5062038;28;20028;-61
2023/07/21 03:59:42;;;;;;;0.80;0.80;;;;;;;21.75;48.82;101108.53;5062382;28;20052;-60
2023/07/21 04:02:08;;;;;;;1.50;0.80;;;;;;;21.72;49.08;101104.25;5063191;28;20115;-61
2023/07/21 04:04:34;;;;;;;1.83;0.85;;;;;;;21.73;48.49;101100.53;5064518;28;20029;-61
2023/07/21 04:07:05;;;;;;;0.80;0.80;;;;;;;21.73;48.75;101100.53;5063275;28;20021;-60
2023/07/21 04:09:33;;;;;;;;;;;;;;;21.82;49.15;101099.56;5063379;28;20045;-61
2023/07/21 04:11:59;;;;;;;0.93;0.73;;;;;;;21.74;48.44;101096.84;5064476;28;19920;-60
2023/07/21 04:14:25;;;;;;;0.60;0.60;;;;;;;21.72;48.41;101088.00;5062308;28;20043;-60
2023/07/21 04:16:51;;;;;;;1.48;0.90;;;;;;;21.72;48.77;101095.28;5062647;28;20043;-60
2023/07/21 04:19:17;;;;;;;0.63;0.63;;;;;;;21.70;48.76;101084.59;5062902;28;20545;-60
2023/07/21 04:21:42;;;;;;;0.90;0.90;;;;;;;21.69;48.45;101090.22;5060664;28;20080;-60
2023/07/21 04:24:08;;;;;;;2.38;0.93;;;;;;;21.70;48.87;101083.75;5062552;28;20119;-60
2023/07/21 04:26:34;;;;;;;0.70;0.70;;;;;;;21.68;48.35;101081.22;5064263;28;20036;-61
2023/07/21 04:28:59;;;;;;;0.93;0.93;;;;;;;21.68;48.34;101075.78;5061697;28;20029;-61
2023/07/21 04:31:28;;;;;;;0.70;0.70;;;;;;;21.68;47.99;101081.22;5062093;28;20036;-61
2023/07/21 04:33:55;;;;;;;1.25;0.70;;;;;;;21.67;48.23;101079.53;5061313;28;20036;-60
2023/07/21 04:36:21;;;;;;;0.90;0.90;;;;;;;21.66;48.62;101075.13;5061389;28;20040;-60
2023/07/21 04:38:47;;;;;;;0.60;0.60;;;;;;;21.66;48.20;101075.13;5062152;28;20036;-60
2023/07/21 04:41:13;;;;;;;0.70;0.70;;;;;;;21.66;48.29;101077.81;5062183;28;20024;-60
2023/07/21 04:43:38;;;;;;;0.60;0.60;;;;;;;21.65;48.63;101076.97;5061244;28;20040;-61
2023/07/21 04:46:03;;;;;;;0.60;0.60;;;;;;;21.65;48.73;101076.13;5059771;28;20090;-60
2023/07/21 04:48:29;;;;;;;0.70;0.70;;;;;;;21.64;48.19;101077.13;5063797;28;20077;-61
2023/07/21 04:50:56;;;;;;;0.95;0.80;;;;;;;21.64;48.07;101074.44;5061213;28;20134;-60
2023/07/21 04:53:22;;;;;;;0.75;0.70;;;;;;;21.63;48.54;101076.31;5061574;28;20479;-60
2023/07/21 04:55:48;;;;;;;0.93;0.85;;;;;;;21.63;48.40;101075.47;5061807;28;20024;-60
2023/07/21 04:58:14;;;;;;;0.80;0.80;;;;;;;21.63;48.40;101072.75;5060898;28;20471;-61
2023/07/21 05:00:39;;;;;;;1.98;0.60;;;;;;;21.62;48.33;101076.47;5061975;28;20032;-60
2023/07/21 05:03:05;;;;;;;0.63;0.50;;;;;;;21.62;48.09;101080.00;5060211;28;20024;-60
2023/07/21 05:05:32;;;;;;;0.63;0.63;;;;;;;21.62;48.45;101081.88;5059941;28;20036;-60
2023/07/21 05:07:59;;;;;;;0.73;0.73;;;;;;;21.61;48.12;101074.75;5063297;28;20021;-61
2023/07/21 05:10:25;;;;;;;0.68;0.68;;;;;;;21.62;48.09;101081.88;5062475;28;20531;-61
2023/07/21 05:12:51;;;;;;;0.68;0.68;;;;;;;21.60;48.40;101084.75;5064084;28;20036;-60
2023/07/21 05:15:16;;;;;;;0.95;0.88;;;;;;;21.60;48.34;101084.75;5059540;28;20364;-61
2023/07/21 05:17:41;;;;;;;0.80;0.80;;;;;;;21.60;48.17;101081.19;5064157;28;20071;-60
2023/07/21 05:20:07;;;;;;;0.80;0.80;;;;;;;21.58;47.82;101077.81;5061904;28;20032;-60
2023/07/21 05:22:33;;;;;;;1.58;0.80;;;;;;;21.59;47.73;101082.19;5062538;28;20052;-60
2023/07/21 05:24:59;;;;;;;0.70;0.63;;;;;;;21.58;48.54;101075.94;5061149;28;20039;-60
2023/07/21 05:27:24;;;;;;;1.25;0.90;;;;;;;21.58;47.97;101080.50;5061340;28;20044;-60
2023/07/21 05:29:50;;;;;;;0.68;0.68;;;;;;;21.58;48.33;101080.50;5060445;28;20120;-60
2023/07/21 05:32:15;;;;;;;1.02;0.90;;;;;;;21.57;48.41;101074.25;5060794;28;20032;-60
2023/07/21 05:34:48;;;;;;;0.80;0.80;;;;;;;21.56;47.86;101086.09;5058494;28;20037;-60
2023/07/21 05:37:13;;;;;;;0.70;0.70;;;;;;;21.57;48.35;101085.09;5062650;28;20028;-61
2023/07/21 05:39:39;;;;;;;0.80;0.80;;;;;;;21.56;48.25;101088.81;5057291;28;20031;-61
2023/07/21 05:42:05;;;;;;;1.60;0.80;;;;;;;21.57;48.22;101078.81;5053177;28;20062;-61
2023/07/21 05:44:32;;;;;;;0.93;0.90;;;;;;;21.56;48.29;101087.97;5053890;28;20032;-60
2023/07/21 05:46:58;;;;;;;0.90;0.90;;;;;;;21.55;48.43;101080.84;5058576;28;20505;-61
2023/07/21 05:49:23;;;;;;;0.90;0.90;;;;;;;21.55;47.86;101083.53;5056707;28;20040;-60
2023/07/21 05:51:50;;;;;;;1.02;1.02;;;;;;;21.56;48.16;101082.53;5054679;28;20387;-61
2023/07/21 05:54:15;;;;;;;1.08;0.80;;;;;;;21.55;47.92;101083.53;5052156;28;20429;-60
2023/07/21 05:56:40;;;;;;;1.08;0.85;;;;;;;21.53;48.26;101083.69;5057229;28;20033;-61
2023/07/21 05:59:06;;;;;;;1.08;0.90;;;;;;;21.54;48.25;101082.69;5056829;28;20816;-61
2023/07/21 06:01:34;;;;;;;1.23;0.65;;;;;;;21.54;47.87;101084.56;5053610;28;20033;-60
2023/07/21 06:04:00;;;;;;;1.10;1.00;;;;;;;21.53;48.27;101082.88;5055808;28;20033;-61
2023/07/21 06:06:25;;;;;;;0.80;0.80;;;;;;;21.53;48.09;101081.00;5057242;28;20032;-60
2023/07/21 06:08:51;;;;;;;1.10;0.90;;;;;;;21.53;47.90;101086.41;5057365;28;20067;-61
2023/07/21 06:11:17;;;;;;;0.73;0.73;;;;;;;21.52;47.87;101083.88;5052663;28;20025;-61
2023/07/21 06:13:42;;;;;;;0.80;0.80;;;;;;;21.52;47.78;101086.59;5055840;28;20501;-61
2023/07/21 06:16:08;;;;;;;1.25;1.10;;;;;;;21.52;47.97;101086.59;5055841;28;20128;-61
2023/07/21 06:18:35;;;;;;;1.67;1.20;;;;;;;21.52;47.97;101084.72;5060901;28;20040;-60
2023/07/21 06:21:03;;;;;;;1.15;1.10;;;;;;;21.51;47.85;101084.88;5059645;28;20494;-61
2023/07/21 06:23:28;;;;;;;0.90;0.90;;;;;;;21.51;48.14;101083.03;5059346;28;20040;-61
2023/07/21 06:25:53;;;;;;;1.10;1.00;;;;;;;21.51;47.98;101090.31;5059109;28;20058;-60
2023/07/21 06:28:19;;;;;;;1.10;1.00;;;;;;;21.50;48.19;101088.63;5060380;28;20383;-60
2023/07/21 06:30:45;;;;;;;0.70;0.70;;;;;;;21.50;47.86;101083.22;5058418;28;20390;-60
2023/07/21 06:33:11;;;;;;;1.13;0.90;;;;;;;21.51;47.70;101079.47;5059445;28;20472;-61
2023/07/21 06:35:36;;;;;;;0.82;0.82;;;;;;;21.51;47.76;101084.88;5059456;28;20040;-61
2023/07/21 06:38:02;;;;;;;0.90;0.90;;;;;;;21.50;48.21;101080.50;5056984;28;20036;-61
2023/07/21 06:40:27;;;;;;;1.02;0.90;;;;;;;21.50;47.71;101083.22;5058634;28;20505;-61
2023/07/21 06:42:52;;;;;;;1.42;1.10;;;;;;;21.49;48.23;101076.91;5055649;28;20066;-61
2023/07/21 06:45:18;;;;;;;1.27;1.13;;;;;;;21.48;47.98;101070.66;5054480;28;20053;-61
2023/07/21 06:47:43;;;;;;;0.75;0.75;;;;;;;21.49;48.20;101076.91;5054100;28;20029;-61
2023/07/21 06:50:09;;;;;;;1.00;0.98;;;;;;;21.50;48.34;101075.09;5053500;28;20033;-61
2023/07/21 06:52:35;;;;;;;0.82;0.82;;;;;;;21.47;47.78;101071.66;5056904;28;20526;-60
2023/07/21 06:55:01;;;;;;;1.35;1.20;;;;;;;21.50;48.03;101077.78;5055679;28;20027;-61
2023/07/21 06:57:28;;;;;;;0.90;0.90;;;;;;;21.47;48.10;101074.38;5055036;28;20479;-61
2023/07/21 06:59:54;;;;;;;1.20;1.10;;;;;;;21.47;48.07;101068.94;5057365;28;20025;-61
2023/07/21 07:02:19;;;;;;;0.73;0.73;;;;;;;21.48;48.27;101073.38;5058807;28;20040;-62
2023/07/21 07:04:45;;;;;;;1.10;0.98;;;;;;;21.48;48.42;101073.38;5056692;28;20612;-62
2023/07/21 07:07:10;;;;;;;1.73;0.80;;;;;;;21.47;47.98;101071.66;5059005;28;20020;-62
2023/07/21 07:09:36;;;;;;;0.90;0.90;;;;;;;21.48;47.89;101069.81;5053195;28;20060;-61
2023/07/21 07:12:02;;;;;;;1.13;1.05;;;;;;;21.48;47.89;101073.38;5059901;28;20493;-62
2023/07/21 07:14:27;;;;;;;0.90;0.90;;;;;;;21.47;47.80;101068.94;5058880;28;20036;-61
2023/07/21 07:16:52;;;;;;;1.42;0.93;;;;;;;21.47;47.91;101071.66;5060157;28;20048;-61
2023/07/21 07:19:19;;;;;;;1.00;1.00;;;;;;;21.47;48.01;101071.66;5058233;28;20115;-61
2023/07/21 07:21:44;;;;;;;1.00;0.98;;;;;;;21.47;48.28;101068.94;5058936;28;20084;-61
2023/07/21 07:24:10;;;;;;;1.45;1.00;;;;;;;21.47;48.04;101068.94;5058468;28;20139;-61
2023/07/21 07:26:35;;;;;;;1.25;1.00;;;;;;;21.47;47.90;101058.13;5058693;28;20038;-61
2023/07/21 07:29:03;;;;;;;0.98;0.82;;;;;;;21.47;47.99;101063.53;5059245;28;20036;-61
2023/07/21 07:31:30;;;;;;;1.85;1.08;;;;;;;21.47;48.51;101066.25;5058594;28;20032;-61
2023/07/21 07:33:55;;;;;;;1.20;1.10;;;;;;;21.47;47.92;101063.53;5056930;28;20039;-61
2023/07/21 07:36:20;;;;;;;2.58;1.02;;;;;;;21.47;48.27;101066.25;5057697;28;20072;-61
2023/07/21 07:38:46;;;;;;;0.88;0.80;;;;;;;21.47;47.92;101071.66;5058324;28;20471;-61
2023/07/21 07:41:12;;;;;;;0.90;0.90;;;;;;;21.47;48.29;101073.53;5059289;28;20123;-61
2023/07/21 07:43:38;;;;;;;2.08;1.25;;;;;;;21.47;48.17;101068.94;5061768;28;20040;-60
2023/07/21 07:46:07;;;;;;;0.73;0.73;;;;;;;21.46;48.02;101069.97;5061872;28;20478;-61
2023/07/21 07:48:36;;;;;;;0.80;0.80;;;;;;;21.47;48.41;101071.66;5062050;28;20074;-61
2023/07/21 07:51:04;;;;;;;2.30;1.10;;;;;;;21.47;47.86;101079.78;5062778;28;20040;-60
2023/07/21 07:53:30;;;;;;;1.20;1.10;;;;;;;21.47;48.22;101070.81;5058786;28;20032;-60
2023/07/21 07:55:57;;;;;;;0.90;0.90;;;;;;;21.47;47.92;101078.94;5061830;28;20037;-61
2023/07/21 07:58:22;;;;;;;0.80;0.77;;;;;;;21.46;48.16;101069.97;5062913;28;20024;-60
2023/07/21 08:00:48;;;;;;;0.93;0.88;;;;;;;21.48;48.22;101072.53;5062406;28;20441;-60
2023/07/21 08:03:13;;;;;;;1.00;0.90;;;;;;;21.47;48.29;101074.38;5063443;28;20048;-60
2023/07/21 08:05:40;;;;;;;0.90;0.90;;;;;;;21.48;48.44;101078.78;5065596;28;20375;-60
2023/07/21 08:08:09;;;;;;;0.63;0.63;;;;;;;21.47;48.58;101068.09;5065816;28;20039;-61
2023/07/21 08:10:35;;;;;;;0.80;0.80;;;;;;;21.48;48.21;101067.94;5065403;28;20044;-61
2023/07/21 08:13:04;;;;;;;1.00;0.90;;;;;;;21.48;48.33;101067.09;5063054;28;20090;-61
2023/07/21 08:15:29;;;;;;;1.02;0.93;;;;;;;21.48;48.33;101067.94;5062338;28;20033;-61
2023/07/21 08:17:55;;;;;;;1.08;0.98;;;;;;;21.47;48.36;101068.94;5062998;28;20532;-61
2023/07/21 08:20:21;;;;;;;0.82;0.80;;;;;;;21.48;48.24;101067.94;5065139;28;20115;-61
2023/07/21 08:22:47;;;;;;;0.70;0.70;;;;;;;21.46;48.50;101067.28;5062039;28;20098;-61
2023/07/21 08:25:12;;;;;;;0.70;0.70;;;;;;;21.47;48.29;101068.94;5062392;28;20382;-61
2023/07/21 08:27:38;;;;;;;0.68;0.68;;;;;;;21.48;48.45;101070.66;5062859;28;20022;-61
2023/07/21 08:30:04;;;;;;;0.75;0.75;;;;;;;21.47;48.38;101066.25;5055401;28;20033;-61
2023/07/21 08:32:30;;;;;;;1.13;0.75;;;;;;;21.49;48.75;101074.22;5062084;28;20429;-61
2023/07/21 08:34:55;;;;;;;0.80;0.80;;;;;;;21.48;48.75;101069.81;5062266;28;20086;-61
2023/07/21 08:37:21;;;;;;;0.68;0.68;;;;;;;21.47;48.61;101071.66;5061155;28;20390;-61
2023/07/21 08:39:46;;;;;;;0.90;0.70;;;;;;;21.49;48.77;101074.22;5061921;28;20032;-61
2023/07/21 08:42:13;;;;;;;0.90;0.90;;;;;;;21.47;48.81;101068.94;5062053;28;20470;-61
2023/07/21 08:44:39;;;;;;;0.73;0.73;;;;;;;21.48;48.91;101078.78;5061371;28;20039;-61
2023/07/21 08:47:05;;;;;;;0.75;0.75;;;;;;;21.49;48.93;101074.22;5061517;28;20490;-60
2023/07/21 08:49:30;;;;;;;0.80;0.80;;;;;;;21.48;48.71;101070.66;5061643;28;20052;-61
2023/07/21 08:51:56;;;;;;;1.10;0.90;;;;;;;21.48;48.66;101073.38;5061177;28;20033;-60
2023/07/21 08:54:21;;;;;;;1.25;0.88;;;;;;;21.50;48.83;101077.78;5060866;28;20041;-60
2023/07/21 08:56:46;;;;;;;0.73;0.73;;;;;;;21.48;49.02;101069.81;5062059;28;20037;-61
2023/07/21 08:59:12;;;;;;;1.00;0.90;;;;;;;21.48;48.82;101076.06;5060779;28;20100;-60
2023/07/21 09:01:37;;;;;;;0.80;0.80;;;;;;;21.48;48.98;101080.66;5061359;28;20344;-61
2023/07/21 09:04:17;;;;;;;0.93;0.90;;;;;;;21.50;49.08;101077.78;5061519;28;20063;-61
2023/07/21 09:06:48;;;;;;;0.80;0.80;;;;;;;21.48;48.82;101076.06;5066369;28;20040;-61
2023/07/21 09:09:17;;;;;;;0.73;0.73;;;;;;;21.49;48.76;101074.22;5057222;28;20421;-61
2023/07/21 09:11:42;;;;;;;0.80;0.80;;;;;;;21.48;49.27;101075.25;5060822;28;20040;-61
2023/07/21 09:14:08;;;;;;;0.80;0.75;;;;;;;21.47;48.71;101074.38;5060646;28;20032;-61
2023/07/21 09:16:33;;;;;;;0.65;0.55;;;;;;;21.48;48.95;101076.06;5060930;28;20033;-61
2023/07/21 09:18:58;;;;;;;0.95;0.80;;;;;;;21.48;49.15;101069.81;5061170;28;20364;-60
2023/07/21 09:21:24;;;;;;;0.88;0.82;;;;;;;21.49;48.78;101076.91;5061523;28;20068;-61
2023/07/21 09:23:50;;;;;;;0.90;0.80;;;;;;;21.48;49.06;101070.66;5060942;28;20453;-61
2023/07/21 09:26:21;;;;;;;0.65;0.65;;;;;;;21.48;49.25;101070.66;5058337;28;20035;-60
2023/07/21 09:28:47;;;;;;;;;;;;;;;21.58;48.98;101072.38;5064725;28;20027;-61
2023/07/21 09:31:13;;;;;;;1.02;0.90;;;;;;;21.51;48.71;101068.63;5060423;28;19912;-61
2023/07/21 09:33:42;;;;;;;0.73;0.73;;;;;;;21.50;49.11;101061.53;5060814;28;20043;-61
2023/07/21 09:36:10;;;;;;;0.65;0.65;;;;;;;21.50;49.19;101062.38;5061128;28;20036;-60
2023/07/21 09:38:37;;;;;;;0.70;0.70;;;;;;;21.50;48.95;101053.41;5056543;28;20528;-61
2023/07/21 09:41:04;;;;;;;0.75;0.75;;;;;;;21.50;48.99;101053.41;5056590;28;20493;-61
2023/07/21 09:43:30;;;;;;;0.98;0.95;;;;;;;21.50;48.98;101051.53;5057198;28;20474;-60
2023/07/21 09:46:02;;;;;;;0.80;0.80;;;;;;;21.51;49.36;101041.53;5056641;28;20055;-60
2023/07/21 09:48:30;;;;;;;0.80;0.70;;;;;;;21.50;49.17;101050.69;5057372;28;20044;-61
2023/07/21 09:51:02;;;;;;;1.10;0.82;;;;;;;21.51;49.38;101041.53;5061159;28;20032;-60
2023/07/21 09:53:32;;;;;;;;;;;;;;;21.59;49.00;101044.25;5060683;28;20390;-61
2023/07/21 09:56:00;;;;;;;1.30;0.73;;;;;;;21.54;49.46;101043.94;5060811;28;19951;-61
2023/07/21 09:58:27;;;;;;;0.65;0.65;;;;;;;21.51;49.37;101031.53;5060971;28;20032;-60
2023/07/21 10:01:01;;;;;;;0.80;0.80;;;;;;;21.52;49.00;101035.13;5060340;28;20119;-61
2023/07/21 10:03:26;;;;;;;0.68;0.68;;;;;;;21.53;49.22;101042.22;5064019;28;20036;-61
2023/07/21 10:05:53;;;;;;;0.75;0.60;;;;;;;21.52;49.26;101033.25;5060238;28;20084;-61
2023/07/21 10:08:21;;;;;;;0.77;0.77;;;;;;;21.53;49.11;101031.38;5064242;28;20040;-61
2023/07/21 10:10:47;;;;;;;0.85;0.85;;;;;;;21.53;49.40;101040.34;5063162;28;20097;-61
2023/07/21 10:13:12;;;;;;;0.70;0.70;;;;;;;21.54;49.12;101041.22;5060708;28;20417;-61
2023/07/21 10:15:40;;;;;;;0.70;0.70;;;;;;;21.53;49.40;101045.78;5060041;28;20127;-61
2023/07/21 10:18:07;;;;;;;0.80;0.80;;;;;;;21.54;49.40;101049.34;5060110;28;20024;-61
2023/07/21 10:20:42;;;;;;;0.93;0.73;;;;;;;21.55;49.15;101046.47;5059204;28;20127;-61
2023/07/21 10:23:08;;;;;;;0.70;0.70;;;;;;;21.54;49.09;101044.78;5056657;28;20384;-61
2023/07/21 10:25:51;;;;;;;1.38;0.70;;;;;;;21.56;49.22;101047.31;5059772;28;20043;-61
2023/07/21 10:28:36;;;;;;;0.82;0.77;;;;;;;21.56;49.22;101039.19;5052824;28;20017;-61
2023/07/21 10:31:26;;;;;;;0.80;0.80;;;;;;;21.56;49.54;101041.91;5056570;28;20028;-61
2023/07/21 10:34:13;;;;;;;0.80;0.80;;;;;;;21.57;49.50;101040.88;5059134;28;20029;-61
2023/07/21 10:36:48;;;;;;;0.80;0.77;;;;;;;21.55;49.20;101038.34;5052569;28;20402;-61
2023/07/21 10:39:19;;;;;;;1.77;0.70;;;;;;;21.55;49.20;101046.47;5056092;28;20122;-61
2023/07/21 10:41:46;;;;;;;0.77;0.60;;;;;;;21.56;49.59;101045.44;5054129;28;20037;-61
2023/07/21 10:44:12;;;;;;;0.60;0.60;;;;;;;21.55;49.42;101043.78;5054543;28;20025;-61
2023/07/21 10:46:38;;;;;;;0.80;0.75;;;;;;;21.55;49.56;101042.91;5056250;28;20372;-61
2023/07/21 10:49:04;;;;;;;1.77;0.90;;;;;;;21.56;49.54;101041.91;5057946;28;20041;-61
2023/07/21 10:51:30;;;;;;;0.70;0.60;;;;;;;21.56;49.20;101050.88;5057128;28;20513;-60
2023/07/21 10:53:55;;;;;;;0.68;0.68;;;;;;;21.57;49.47;101051.72;5058696;28;20371;-61
2023/07/21 10:56:22;;;;;;;1.00;0.90;;;;;;;21.57;49.67;101052.59;5059097;28;20409;-61
2023/07/21 10:58:48;;;;;;;0.80;0.80;;;;;;;21.56;49.26;101050.03;5059501;28;20386;-60
2023/07/21 11:01:18;;;;;;;1.50;1.00;;;;;;;21.56;49.43;101056.28;5058345;28;20392;-61
2023/07/21 11:03:46;;;;;;;0.77;0.60;;;;;;;21.56;49.87;101048.16;5058448;28;20473;-60
2023/07/21 11:06:12;;;;;;;0.73;0.73;;;;;;;21.57;49.38;101047.16;5053108;28;20023;-60
2023/07/21 11:08:37;;;;;;;0.70;0.70;;;;;;;21.57;49.21;101057.13;5038421;28;20033;-61
2023/07/21 11:11:03;;;;;;;0.75;0.75;;;;;;;21.58;49.78;101061.56;5057094;28;20024;-61
2023/07/21 11:13:28;;;;;;;0.70;0.70;;;;;;;21.58;49.68;101075.09;5052368;28;20029;-61
2023/07/21 11:15:54;;;;;;;0.93;0.88;;;;;;;21.58;49.33;101075.09;5056450;28;20028;-61
2023/07/21 11:18:20;;;;;;;0.98;0.68;;;;;;;21.58;49.75;101085.94;5056690;28;20037;-61
2023/07/21 11:20:50;;;;;;;0.90;0.90;;;;;;;21.58;49.64;101094.06;5056054;28;20037;-61
2023/07/21 11:23:16;;;;;;;0.80;0.80;;;;;;;21.58;49.48;101107.63;5056793;28;20032;-60
2023/07/21 11:26:06;;;;;;;0.73;0.73;;;;;;;21.59;49.50;101109.28;5043039;28;20056;-60